createdAt,value
2018-12-29T00:00:43.081Z,37.72
2018-12-29T00:03:16.043Z,37.76
2018-12-29T00:05:48.633Z,37.80
2018-12-29T00:08:20.450Z,37.75
2018-12-29T00:10:52.359Z,37.75
2018-12-29T00:13:24.217Z,37.82
2018-12-29T00:15:56.217Z,37.84
2018-12-29T00:18:28.367Z,37.85
2018-12-29T00:21:00.369Z,37.91
2018-12-29T00:23:32.304Z,37.96
2018-12-29T00:26:04.301Z,37.95
2018-12-29T00:28:35.981Z,37.92
2018-12-29T00:31:07.782Z,37.95
2018-12-29T00:33:41.542Z,37.94
2018-12-29T00:36:13.503Z,38.02
2018-12-29T00:38:44.850Z,38.02
2018-12-29T00:41:17.834Z,38.07
2018-12-29T00:43:50.264Z,38.05
2018-12-29T00:46:22.605Z,38.08
2018-12-29T00:48:54.409Z,38.13
2018-12-29T00:51:26.303Z,38.13
2018-12-29T00:53:58.270Z,38.15
2018-12-29T00:56:30.342Z,38.07
2018-12-29T00:59:02.372Z,38.04
2018-12-29T01:01:34.773Z,38.04
2018-12-29T01:04:06.790Z,38.07
2018-12-29T01:06:38.410Z,38.03
2018-12-29T01:09:11.286Z,38.07
2018-12-29T01:11:43.316Z,38.10
2018-12-29T01:14:15.467Z,38.07
2018-12-29T01:16:47.808Z,38.06
2018-12-29T01:19:19.830Z,38.15
2018-12-29T01:21:51.811Z,38.13
2018-12-29T01:24:23.422Z,38.12
2018-12-29T01:26:55.391Z,38.08
2018-12-29T01:29:27.388Z,38.15
2018-12-29T01:31:59.613Z,38.11
2018-12-29T01:34:31.414Z,38.14
2018-12-29T01:37:03.492Z,38.14
2018-12-29T01:39:36.351Z,38.08
2018-12-29T01:42:08.308Z,38.11
2018-12-29T01:44:40.059Z,38.18
2018-12-29T01:47:11.894Z,38.16
2018-12-29T01:49:45.730Z,38.17
2018-12-29T01:52:18.952Z,38.20
2018-12-29T01:54:50.692Z,38.20
2018-12-29T01:57:22.265Z,38.18
2018-12-29T01:59:54.043Z,38.15
2018-12-29T02:02:25.767Z,38.21
2018-12-29T02:04:57.767Z,38.23
2018-12-29T02:07:29.259Z,38.30
2018-12-29T02:10:00.811Z,38.31
2018-12-29T02:12:32.813Z,38.31
2018-12-29T02:15:05.305Z,38.28
2018-12-29T02:17:37.203Z,38.36
2018-12-29T02:20:09.439Z,38.27
2018-12-29T02:22:41.757Z,38.26
2018-12-29T02:25:14.324Z,38.30
2018-12-29T02:27:47.066Z,38.25
2018-12-29T02:30:19.302Z,38.26
2018-12-29T02:32:51.790Z,38.23
2018-12-29T02:35:22.637Z,38.24
2018-12-29T02:37:54.576Z,38.27
2018-12-29T02:40:25.729Z,38.26
2018-12-29T02:42:56.466Z,38.18
2018-12-29T02:45:32.968Z,38.19
2018-12-29T02:48:01.731Z,38.17
2018-12-29T02:50:32.495Z,38.24
2018-12-29T02:53:05.311Z,38.17
2018-12-29T02:55:37.306Z,38.16
2018-12-29T02:58:09.307Z,38.19
2018-12-29T03:00:41.016Z,38.27
2018-12-29T03:03:13.421Z,38.19
2018-12-29T03:05:45.800Z,38.18
2018-12-29T03:08:17.953Z,38.22
2018-12-29T03:10:50.064Z,38.18
2018-12-29T03:13:21.792Z,38.23
2018-12-29T03:15:53.789Z,38.26
2018-12-29T03:18:25.391Z,38.30
2018-12-29T03:20:57.752Z,38.21
2018-12-29T03:23:28.464Z,38.26
2018-12-29T03:26:00.328Z,38.34
2018-12-29T03:28:32.454Z,38.28
2018-12-29T03:31:04.353Z,38.22
2018-12-29T03:33:36.639Z,38.24
2018-12-29T03:36:08.065Z,38.24
2018-12-29T03:38:39.793Z,38.27
2018-12-29T03:41:15.305Z,38.31
2018-12-29T03:43:46.989Z,38.29
2018-12-29T03:46:18.768Z,38.34
2018-12-29T03:48:49.521Z,38.24
2018-12-29T03:51:21.782Z,38.22
2018-12-29T03:53:52.507Z,38.19
2018-12-29T03:56:24.567Z,38.23
2018-12-29T03:58:56.777Z,38.26
2018-12-29T04:01:27.522Z,38.26
2018-12-29T04:03:59.692Z,38.17
2018-12-29T04:06:30.517Z,38.26
2018-12-29T04:09:39.896Z,38.21
2018-12-29T04:12:20.486Z,38.19
2018-12-29T04:14:52.640Z,38.26
2018-12-29T04:17:24.442Z,38.32
2018-12-29T04:20:49.780Z,38.34
2018-12-29T04:23:20.489Z,38.29
2018-12-29T04:25:52.298Z,38.29
2018-12-29T04:28:23.979Z,38.24
2018-12-29T04:30:55.807Z,38.25
2018-12-29T04:33:27.814Z,38.23
2018-12-29T04:35:59.796Z,38.22
2018-12-29T04:38:30.669Z,38.21
2018-12-29T04:41:01.335Z,38.11
2018-12-29T04:43:32.716Z,38.14
2018-12-29T04:46:05.387Z,38.12
2018-12-29T04:48:37.835Z,38.28
2018-12-29T04:51:09.791Z,38.28
2018-12-29T04:53:42.504Z,38.22
2018-12-29T04:56:14.817Z,38.23
2018-12-29T04:58:46.814Z,38.24
2018-12-29T05:01:19.321Z,38.30
2018-12-29T05:03:51.315Z,38.31
2018-12-29T05:06:23.278Z,38.30
2018-12-29T05:08:55.314Z,38.29
2018-12-29T05:11:27.478Z,38.34
2018-12-29T05:13:59.532Z,38.29
2018-12-29T05:16:31.812Z,38.29
2018-12-29T05:19:03.814Z,38.27
2018-12-29T05:21:36.363Z,38.17
2018-12-29T05:24:08.528Z,38.12
2018-12-29T05:26:41.496Z,38.16
2018-12-29T05:29:13.862Z,38.12
2018-12-29T05:31:46.546Z,38.10
2018-12-29T05:34:19.031Z,38.07
2018-12-29T05:36:51.375Z,38.07
2018-12-29T05:39:23.833Z,38.06
2018-12-29T05:41:56.315Z,38.04
2018-12-29T05:44:28.988Z,37.98
2018-12-29T05:47:01.708Z,37.97
2018-12-29T05:49:32.859Z,38.00
2018-12-29T05:52:05.321Z,38.04
2018-12-29T05:54:37.812Z,38.02
2018-12-29T05:57:09.776Z,38.01
2018-12-29T05:59:41.841Z,38.01
2018-12-29T06:02:13.810Z,37.63
2018-12-29T06:04:45.794Z,24.88
2018-12-29T06:07:17.843Z,16.05
2018-12-29T06:09:49.847Z,12.13
2018-12-29T06:12:22.313Z,10.37
2018-12-29T06:14:54.483Z,9.73
2018-12-29T06:17:26.665Z,9.50
2018-12-29T06:19:58.567Z,9.30
2018-12-29T06:22:30.791Z,9.60
2018-12-29T06:25:02.817Z,9.60
2018-12-29T06:27:34.803Z,10.14
2018-12-29T06:30:06.794Z,10.97
2018-12-29T06:32:38.804Z,11.83
2018-12-29T06:35:11.140Z,12.78
2018-12-29T06:37:42.741Z,13.77
2018-12-29T06:40:14.434Z,14.80
2018-12-29T06:42:46.315Z,15.81
2018-12-29T06:45:18.429Z,16.78
2018-12-29T06:47:50.613Z,17.78
2018-12-29T06:50:22.639Z,19.73
2018-12-29T06:52:54.352Z,20.40
2018-12-29T06:55:26.352Z,20.40
2018-12-29T06:57:58.313Z,21.29
2018-12-29T07:00:30.439Z,22.09
2018-12-29T07:03:02.275Z,22.84
2018-12-29T07:05:34.271Z,23.66
2018-12-29T07:08:06.092Z,24.38
2018-12-29T07:10:38.362Z,25.09
2018-12-29T07:13:10.074Z,25.74
2018-12-29T07:15:41.835Z,26.39
2018-12-29T07:18:13.630Z,26.97
2018-12-29T07:20:45.438Z,28.15
2018-12-29T07:23:17.847Z,28.15
2018-12-29T07:25:49.816Z,28.68
2018-12-29T07:28:21.855Z,29.24
2018-12-29T07:30:53.746Z,29.72
2018-12-29T07:33:25.850Z,30.16
2018-12-29T07:35:57.447Z,30.58
2018-12-29T07:38:29.313Z,30.95
2018-12-29T07:41:01.287Z,31.30
2018-12-29T07:43:33.382Z,31.64
2018-12-29T07:46:05.386Z,31.62
2018-12-29T07:48:37.771Z,31.09
2018-12-29T07:51:08.495Z,30.44
2018-12-29T07:53:40.711Z,29.97
2018-12-29T07:56:11.657Z,29.56
2018-12-29T07:58:43.459Z,28.67
2018-12-29T08:01:15.762Z,28.67
2018-12-29T08:03:46.648Z,28.32
2018-12-29T08:06:17.968Z,27.98
2018-12-29T08:08:49.783Z,27.71
2018-12-29T08:11:21.783Z,27.54
2018-12-29T08:13:52.790Z,27.34
2018-12-29T08:16:24.423Z,27.16
2018-12-29T08:18:56.319Z,27.31
2018-12-29T08:21:27.911Z,27.77
2018-12-29T08:23:59.755Z,28.30
2018-12-29T08:26:31.541Z,28.88
2018-12-29T08:29:03.314Z,29.36
2018-12-29T08:31:35.053Z,29.80
2018-12-29T08:34:07.074Z,30.25
2018-12-29T08:36:38.890Z,30.44
2018-12-29T08:39:10.810Z,30.77
2018-12-29T08:41:42.924Z,31.09
2018-12-29T08:44:14.787Z,31.47
2018-12-29T08:46:46.743Z,31.83
2018-12-29T08:49:17.551Z,32.19
2018-12-29T08:51:49.416Z,32.91
2018-12-29T08:54:21.302Z,32.91
2018-12-29T08:56:53.306Z,33.13
2018-12-29T08:59:25.019Z,33.46
2018-12-29T09:01:56.825Z,33.75
2018-12-29T09:04:28.626Z,34.02
2018-12-29T09:07:00.496Z,34.18
2018-12-29T09:09:32.416Z,34.34
2018-12-29T09:12:04.277Z,34.63
2018-12-29T09:14:36.781Z,34.80
2018-12-29T09:17:12.162Z,35.00
2018-12-29T09:19:42.471Z,35.28
2018-12-29T09:22:14.430Z,35.41
2018-12-29T09:24:46.402Z,35.41
2018-12-29T09:27:18.651Z,35.51
2018-12-29T09:29:51.297Z,35.57
2018-12-29T09:32:23.782Z,35.57
2018-12-29T09:34:55.422Z,35.77
2018-12-29T09:37:27.068Z,35.77
2018-12-29T09:39:58.782Z,35.66
2018-12-29T09:42:29.519Z,36.39
2018-12-29T09:45:01.417Z,36.13
2018-12-29T09:47:33.312Z,36.63
2018-12-29T09:50:05.117Z,36.56
2018-12-29T09:52:36.816Z,36.71
2018-12-29T09:55:08.755Z,36.63
2018-12-29T09:57:39.490Z,36.53
2018-12-29T10:00:11.394Z,36.58
2018-12-29T10:02:43.309Z,36.61
2018-12-29T10:05:16.054Z,36.60
2018-12-29T10:07:47.864Z,36.60
2018-12-29T10:10:19.743Z,36.65
2018-12-29T10:12:51.725Z,36.58
2018-12-29T10:15:22.493Z,36.60
2018-12-29T10:17:54.402Z,36.57
2018-12-29T10:20:26.073Z,36.59
2018-12-29T10:22:58.047Z,36.67
2018-12-29T10:25:30.003Z,36.67
2018-12-29T10:28:01.812Z,36.63
2018-12-29T10:30:33.770Z,36.70
2018-12-29T10:33:04.597Z,36.72
2018-12-29T10:35:36.354Z,36.71
2018-12-29T10:38:08.303Z,36.71
2018-12-29T10:40:40.418Z,36.83
2018-12-29T10:43:12.310Z,36.86
2018-12-29T10:45:44.231Z,36.92
2018-12-29T10:48:15.874Z,36.95
2018-12-29T10:50:47.813Z,37.00
2018-12-29T10:53:19.741Z,37.02
2018-12-29T10:55:50.662Z,37.06
2018-12-29T10:58:22.788Z,37.17
2018-12-29T11:00:54.741Z,37.17
2018-12-29T11:03:25.498Z,37.10
2018-12-29T11:05:57.718Z,37.05
2018-12-29T11:08:29.790Z,37.07
2018-12-29T11:11:00.574Z,37.10
2018-12-29T11:13:32.239Z,37.09
2018-12-29T11:16:03.622Z,37.01
2018-12-29T11:18:35.605Z,37.09
2018-12-29T11:21:07.371Z,37.04
2018-12-29T11:23:39.135Z,37.04
2018-12-29T11:26:10.726Z,37.02
2018-12-29T11:28:41.648Z,37.17
2018-12-29T11:31:13.656Z,37.44
2018-12-29T11:33:45.432Z,37.44
2018-12-29T11:36:16.661Z,37.27
2018-12-29T11:38:47.609Z,37.17
2018-12-29T11:41:19.386Z,37.18
2018-12-29T11:43:51.375Z,37.18
2018-12-29T11:46:23.439Z,37.16
2018-12-29T11:48:55.307Z,37.21
2018-12-29T11:51:27.317Z,37.32
2018-12-29T11:53:59.325Z,37.51
2018-12-29T11:56:31.397Z,37.68
2018-12-29T11:59:03.603Z,37.51
2018-12-29T12:01:34.604Z,37.43
2018-12-29T12:04:06.371Z,37.38
2018-12-29T12:06:38.381Z,37.38
2018-12-29T12:09:10.476Z,37.36
2018-12-29T12:11:42.266Z,37.39
2018-12-29T12:14:14.307Z,37.39
2018-12-29T12:16:46.635Z,37.38
2018-12-29T12:19:17.480Z,37.51
2018-12-29T12:21:49.236Z,37.72
2018-12-29T12:24:21.282Z,37.95
2018-12-29T12:26:53.302Z,38.06
2018-12-29T12:29:24.904Z,38.24
2018-12-29T12:31:56.833Z,38.08
2018-12-29T12:34:28.805Z,38.45
2018-12-29T12:37:00.777Z,38.53
2018-12-29T12:39:32.868Z,38.75
2018-12-29T12:42:05.248Z,38.81
2018-12-29T12:44:36.991Z,39.28
2018-12-29T12:47:08.749Z,39.23
2018-12-29T12:49:40.738Z,39.35
2018-12-29T12:52:12.625Z,39.56
2018-12-29T12:54:44.578Z,39.72
2018-12-29T12:57:18.647Z,39.68
2018-12-29T12:59:50.691Z,40.23
2018-12-29T13:02:21.866Z,39.07
2018-12-29T13:04:53.791Z,26.40
2018-12-29T13:07:25.374Z,17.72
2018-12-29T13:09:57.350Z,13.77
2018-12-29T13:12:29.541Z,12.08
2018-12-29T13:15:01.608Z,11.31
2018-12-29T13:17:33.259Z,11.31
2018-12-29T13:20:05.155Z,11.54
2018-12-29T13:22:37.326Z,12.24
2018-12-29T13:25:09.229Z,13.12
2018-12-29T13:27:40.814Z,14.07
2018-12-29T13:30:12.784Z,15.17
2018-12-29T13:32:44.567Z,22.67
2018-12-29T13:35:15.459Z,30.28
2018-12-29T13:37:47.770Z,30.28
2018-12-29T13:40:19.434Z,33.05
2018-12-29T13:42:52.305Z,34.22
2018-12-29T13:45:23.973Z,35.26
2018-12-29T13:47:55.828Z,35.53
2018-12-29T13:50:27.809Z,34.98
2018-12-29T13:53:00.294Z,37.12
2018-12-29T13:55:32.324Z,37.06
2018-12-29T13:58:04.790Z,37.75
2018-12-29T14:00:36.775Z,37.61
2018-12-29T14:03:08.723Z,37.91
2018-12-29T14:05:40.474Z,37.87
2018-12-29T14:08:12.998Z,38.04
2018-12-29T14:10:44.774Z,38.32
2018-12-29T14:13:17.309Z,38.09
2018-12-29T14:15:49.986Z,38.03
2018-12-29T14:18:28.154Z,37.45
2018-12-29T14:20:55.791Z,38.30
2018-12-29T14:23:27.825Z,39.17
2018-12-29T14:25:59.702Z,39.03
2018-12-29T14:28:30.489Z,39.24
2018-12-29T14:31:02.558Z,38.50
2018-12-29T14:33:34.880Z,39.30
2018-12-29T14:36:06.758Z,39.66
2018-12-29T14:38:38.897Z,39.86
2018-12-29T14:41:11.068Z,40.62
2018-12-29T14:43:45.312Z,40.53
2018-12-29T14:46:17.357Z,40.83
2018-12-29T14:48:49.263Z,40.64
2018-12-29T14:51:21.346Z,41.31
2018-12-29T14:53:53.311Z,40.75
2018-12-29T14:56:25.371Z,41.45
2018-12-29T14:58:57.308Z,40.75
2018-12-29T15:01:29.407Z,41.80
2018-12-29T15:04:01.412Z,41.97
2018-12-29T15:06:33.373Z,41.74
2018-12-29T15:09:06.806Z,41.84
2018-12-29T15:11:38.745Z,41.75
2018-12-29T15:14:09.676Z,40.81
2018-12-29T15:16:41.764Z,40.31
2018-12-29T15:19:13.747Z,39.88
2018-12-29T15:21:44.467Z,42.05
2018-12-29T15:24:16.448Z,42.51
2018-12-29T15:26:48.669Z,42.43
2018-12-29T15:29:21.303Z,42.36
2018-12-29T15:31:53.313Z,42.71
2018-12-29T15:34:25.416Z,42.46
2018-12-29T15:36:57.749Z,42.07
2018-12-29T15:39:33.481Z,42.61
2018-12-29T15:42:05.311Z,42.45
2018-12-29T15:44:37.301Z,42.70
2018-12-29T15:47:08.636Z,42.96
2018-12-29T15:49:40.418Z,42.90
2018-12-29T15:52:12.751Z,42.90
2018-12-29T15:54:44.910Z,42.66
2018-12-29T15:57:16.796Z,42.47
2018-12-29T15:59:49.416Z,41.95
2018-12-29T16:02:21.757Z,42.19
2018-12-29T16:04:53.795Z,42.16
2018-12-29T16:07:26.164Z,42.17
2018-12-29T16:09:58.320Z,42.47
2018-12-29T16:12:30.764Z,42.50
2018-12-29T16:15:02.797Z,42.43
2018-12-29T16:17:34.807Z,43.20
2018-12-29T16:20:06.800Z,42.81
2018-12-29T16:22:38.746Z,42.88
2018-12-29T16:25:10.817Z,43.62
2018-12-29T16:27:42.791Z,43.66
2018-12-29T16:30:14.758Z,43.19
2018-12-29T16:32:46.431Z,43.97
2018-12-29T16:35:18.286Z,44.04
2018-12-29T16:37:50.419Z,43.71
2018-12-29T16:40:23.367Z,43.78
2018-12-29T16:42:55.308Z,43.92
2018-12-29T16:45:26.452Z,44.09
2018-12-29T16:47:58.315Z,43.45
2018-12-29T16:50:30.300Z,44.04
2018-12-29T16:53:02.299Z,44.13
2018-12-29T16:55:34.066Z,43.54
2018-12-29T16:58:06.831Z,43.56
2018-12-29T17:00:38.789Z,43.25
2018-12-29T17:03:10.807Z,43.22
2018-12-29T17:05:42.769Z,43.45
2018-12-29T17:08:13.944Z,43.35
2018-12-29T17:10:46.096Z,43.30
2018-12-29T17:13:18.761Z,43.33
2018-12-29T17:15:49.635Z,43.78
2018-12-29T17:18:22.744Z,43.18
2018-12-29T17:21:20.488Z,43.28
2018-12-29T17:23:52.762Z,42.81
2018-12-29T17:26:24.771Z,42.93
2018-12-29T17:28:56.807Z,43.70
2018-12-29T17:31:28.650Z,43.58
2018-12-29T17:34:00.399Z,43.57
2018-12-29T17:36:32.303Z,43.57
2018-12-29T17:39:04.746Z,43.61
2018-12-29T17:41:36.799Z,43.55
2018-12-29T17:44:08.757Z,43.67
2018-12-29T17:46:39.656Z,43.57
2018-12-29T17:49:11.788Z,43.59
2018-12-29T17:51:43.779Z,43.37
2018-12-29T17:54:18.883Z,43.52
2018-12-29T17:56:50.811Z,43.42
2018-12-29T17:59:22.769Z,43.41
2018-12-29T18:01:54.761Z,43.51
2018-12-29T18:04:25.470Z,43.62
2018-12-29T18:06:57.316Z,43.67
2018-12-29T18:09:29.419Z,43.62
2018-12-29T18:12:00.476Z,43.58
2018-12-29T18:14:32.760Z,43.74
2018-12-29T18:17:04.757Z,43.74
2018-12-29T18:19:36.787Z,43.92
2018-12-29T18:22:08.791Z,43.95
2018-12-29T18:24:40.741Z,43.62
2018-12-29T18:27:12.597Z,43.36
2018-12-29T18:29:44.345Z,42.57
2018-12-29T18:32:16.604Z,42.57
2018-12-29T18:34:49.248Z,41.67
2018-12-29T18:37:21.659Z,40.75
2018-12-29T18:39:52.478Z,40.75
2018-12-29T18:42:24.353Z,40.27
2018-12-29T18:44:56.310Z,40.27
2018-12-29T18:47:28.323Z,39.98
2018-12-29T18:50:00.372Z,40.14
2018-12-29T18:52:32.664Z,39.92
2018-12-29T18:55:04.723Z,40.08
2018-12-29T18:57:36.258Z,40.00
2018-12-29T19:00:08.778Z,40.08
2018-12-29T19:02:41.316Z,40.31
2018-12-29T19:05:13.312Z,40.38
2018-12-29T19:07:45.835Z,40.47
2018-12-29T19:10:17.786Z,39.96
2018-12-29T19:12:49.814Z,40.65
2018-12-29T19:15:23.406Z,39.75
2018-12-29T19:17:56.060Z,39.33
2018-12-29T19:20:28.315Z,39.56
2018-12-29T19:23:00.774Z,39.81
2018-12-29T19:25:31.472Z,40.32
2018-12-29T19:28:03.816Z,40.97
2018-12-29T19:30:36.409Z,40.94
2018-12-29T19:33:08.805Z,41.08
2018-12-29T19:35:47.776Z,41.88
2018-12-29T19:38:20.309Z,42.09
2018-12-29T19:40:52.633Z,43.01
2018-12-29T19:43:24.806Z,42.28
2018-12-29T19:45:56.850Z,41.83
2018-12-29T19:48:28.834Z,42.42
2018-12-29T19:51:30.496Z,42.45
2018-12-29T19:54:02.306Z,42.58
2018-12-29T19:56:34.061Z,42.67
2018-12-29T19:59:06.312Z,42.77
2018-12-29T20:01:38.329Z,42.90
2018-12-29T20:04:09.589Z,42.97
2018-12-29T20:06:41.795Z,43.11
2018-12-29T20:09:14.305Z,43.11
2018-12-29T20:11:46.013Z,42.98
2018-12-29T20:14:18.307Z,42.97
2018-12-29T20:16:50.865Z,42.78
2018-12-29T20:19:23.140Z,43.35
2018-12-29T20:21:54.795Z,43.19
2018-12-29T20:24:27.314Z,43.20
2018-12-29T20:26:59.425Z,43.54
2018-12-29T20:29:31.414Z,43.41
2018-12-29T20:32:03.022Z,43.58
2018-12-29T20:34:36.087Z,43.31
2018-12-29T20:37:07.814Z,43.31
2018-12-29T20:39:39.919Z,43.70
2018-12-29T20:42:11.819Z,43.72
2018-12-29T20:44:44.703Z,43.87
2018-12-29T20:47:17.044Z,43.67
2018-12-29T20:49:49.301Z,43.63
2018-12-29T20:52:21.058Z,43.61
2018-12-29T20:54:53.050Z,43.65
2018-12-29T20:57:25.323Z,43.82
2018-12-29T20:59:57.297Z,43.80
2018-12-29T21:02:29.397Z,43.77
2018-12-29T21:05:01.613Z,43.73
2018-12-29T21:07:33.780Z,43.58
2018-12-29T21:10:05.762Z,43.85
2018-12-29T21:12:37.737Z,43.58
2018-12-29T21:15:09.687Z,43.83
2018-12-29T21:17:41.749Z,43.74
2018-12-29T21:20:17.237Z,43.92
2018-12-29T21:22:47.309Z,43.40
2018-12-29T21:25:20.198Z,43.43
2018-12-29T21:27:52.290Z,43.92
2018-12-29T21:30:24.301Z,44.01
2018-12-29T21:32:56.260Z,43.98
2018-12-29T21:35:28.134Z,43.71
2018-12-29T21:37:59.995Z,43.84
2018-12-29T21:40:32.297Z,43.98
2018-12-29T21:43:04.025Z,43.81
2018-12-29T21:45:36.305Z,43.86
2018-12-29T21:48:08.274Z,43.89
2018-12-29T21:50:40.427Z,43.98
2018-12-29T21:53:12.589Z,43.98
2018-12-29T21:55:44.843Z,43.81
2018-12-29T21:58:16.783Z,43.81
2018-12-29T22:00:48.810Z,43.88
2018-12-29T22:03:21.311Z,43.91
2018-12-29T22:05:53.825Z,43.67
2018-12-29T22:08:25.792Z,43.81
2018-12-29T22:10:57.836Z,43.76
2018-12-29T22:13:29.792Z,43.68
2018-12-29T22:16:02.068Z,43.89
2018-12-29T22:18:34.436Z,44.01
2018-12-29T22:21:06.801Z,43.98
2018-12-29T22:23:39.277Z,43.87
2018-12-29T22:26:11.375Z,43.77
2018-12-29T22:28:43.813Z,43.84
2018-12-29T22:31:15.805Z,43.86
2018-12-29T22:33:48.371Z,43.67
2018-12-29T22:36:20.755Z,43.87
2018-12-29T22:38:52.798Z,43.84
2018-12-29T22:41:24.832Z,43.90
2018-12-29T22:43:56.894Z,43.84
2018-12-29T22:46:28.797Z,43.85
2018-12-29T22:49:03.299Z,43.87
2018-12-29T22:51:35.550Z,43.80
2018-12-29T22:54:07.733Z,43.89
2018-12-29T22:56:38.639Z,43.89
2018-12-29T22:59:10.791Z,43.71
2018-12-29T23:01:43.307Z,43.71
2018-12-29T23:04:15.808Z,43.84
2018-12-29T23:06:48.796Z,43.72
2018-12-29T23:09:21.266Z,43.96
2018-12-29T23:11:53.469Z,43.69
2018-12-29T23:14:25.810Z,43.62
2018-12-29T23:16:58.315Z,43.62
2018-12-29T23:19:30.784Z,43.85
2018-12-29T23:22:03.309Z,43.81
2018-12-29T23:24:35.677Z,43.69
2018-12-29T23:27:06.653Z,43.72
2018-12-29T23:29:37.624Z,43.68
2018-12-29T23:32:08.669Z,43.62
2018-12-29T23:34:40.771Z,43.75
2018-12-29T23:37:12.827Z,43.69
2018-12-29T23:39:44.795Z,43.50
2018-12-29T23:42:17.440Z,43.63
2018-12-29T23:44:50.304Z,43.71
2018-12-29T23:47:22.808Z,43.66
2018-12-29T23:49:55.295Z,43.58
2018-12-29T23:52:27.866Z,43.51
2018-12-29T23:55:00.157Z,43.63
2018-12-29T23:57:32.413Z,43.67
